createdAt,value
2022-08-14T00:01:54.835Z,61.00
2022-08-14T00:04:34.133Z,61.00
2022-08-14T00:07:06.895Z,61.20
2022-08-14T00:09:55.197Z,61.10
2022-08-14T00:12:24.776Z,61.30
2022-08-14T00:15:00.795Z,61.50
2022-08-14T00:17:31.421Z,61.60
2022-08-14T00:20:08.700Z,61.80
2022-08-14T00:22:56.016Z,61.90
2022-08-14T00:25:24.018Z,61.80
2022-08-14T00:27:54.133Z,62.00
2022-08-14T00:30:22.206Z,62.10
2022-08-14T00:32:55.943Z,62.00
2022-08-14T00:36:33.618Z,62.10
2022-08-14T00:38:11.776Z,62.20
2022-08-14T00:40:38.993Z,62.30
2022-08-14T00:43:07.971Z,62.30
2022-08-14T00:45:36.075Z,62.50
2022-08-14T00:48:03.704Z,62.50
2022-08-14T00:50:31.964Z,62.60
2022-08-14T00:53:00.698Z,62.50
2022-08-14T00:55:30.141Z,62.50
2022-08-14T00:58:19.448Z,62.70
2022-08-14T01:00:57.496Z,62.80
2022-08-14T01:03:26.055Z,62.80
2022-08-14T01:05:53.469Z,63.00
2022-08-14T01:08:51.912Z,63.70
2022-08-14T01:11:19.201Z,63.00
2022-08-14T01:13:55.839Z,63.10
2022-08-14T01:16:31.286Z,63.10
2022-08-14T01:19:19.604Z,63.20
2022-08-14T01:21:53.564Z,63.10
2022-08-14T01:24:22.835Z,63.30
2022-08-14T01:27:00.579Z,63.30
2022-08-14T01:29:58.213Z,63.30
2022-08-14T01:32:23.214Z,63.40
2022-08-14T01:35:17.791Z,63.40
2022-08-14T01:37:56.400Z,63.50
2022-08-14T01:40:37.042Z,63.60
2022-08-14T01:43:14.705Z,63.70
2022-08-14T01:45:48.933Z,63.70
2022-08-14T01:48:25.823Z,63.80
2022-08-14T01:50:53.010Z,63.80
2022-08-14T01:53:22.155Z,63.70
2022-08-14T01:55:51.700Z,63.90
2022-08-14T01:58:28.480Z,63.90
2022-08-14T02:00:58.732Z,64.10
2022-08-14T02:03:31.235Z,64.10
2022-08-14T02:06:00.078Z,64.10
2022-08-14T02:08:35.353Z,64.10
2022-08-14T02:11:22.778Z,64.20
2022-08-14T02:14:07.252Z,64.20
2022-08-14T02:16:46.066Z,64.30
2022-08-14T02:19:17.316Z,64.30
2022-08-14T02:21:48.958Z,64.40
2022-08-14T02:24:39.428Z,64.50
2022-08-14T02:28:25.936Z,64.60
2022-08-14T02:29:59.933Z,64.50
2022-08-14T02:32:37.383Z,64.50
2022-08-14T02:35:18.899Z,64.60
2022-08-14T02:37:49.312Z,64.60
2022-08-14T02:40:19.423Z,64.60
2022-08-14T02:42:54.237Z,64.50
2022-08-14T02:45:22.381Z,64.60
2022-08-14T02:47:53.935Z,64.70
2022-08-14T02:50:27.051Z,64.70
2022-08-14T02:52:56.495Z,64.70
2022-08-14T02:55:25.226Z,64.80
2022-08-14T02:57:58.296Z,64.90
2022-08-14T03:00:33.140Z,64.80
2022-08-14T03:03:02.792Z,64.90
2022-08-14T03:05:37.209Z,64.90
2022-08-14T03:08:15.097Z,65.00
2022-08-14T03:10:49.256Z,64.90
2022-08-14T03:13:21.091Z,64.90
2022-08-14T03:15:55.953Z,64.80
2022-08-14T03:18:31.511Z,64.90
2022-08-14T03:21:02.840Z,65.00
2022-08-14T03:23:38.041Z,65.00
2022-08-14T03:26:08.749Z,64.80
2022-08-14T03:28:43.147Z,64.80
2022-08-14T03:31:13.268Z,65.00
2022-08-14T03:33:41.837Z,64.80
2022-08-14T03:37:39.394Z,64.80
2022-08-14T03:39:15.029Z,65.10
2022-08-14T03:41:51.004Z,65.00
2022-08-14T03:45:25.503Z,65.10
2022-08-14T03:47:05.635Z,65.00
2022-08-14T03:49:34.025Z,65.10
2022-08-14T03:52:07.747Z,65.40
2022-08-14T03:54:52.388Z,65.10
2022-08-14T03:57:20.357Z,65.40
2022-08-14T03:59:51.224Z,65.40
2022-08-14T04:02:33.060Z,65.40
2022-08-14T04:05:12.912Z,65.50
2022-08-14T04:07:49.681Z,65.60
2022-08-14T04:10:32.165Z,65.60
2022-08-14T04:13:06.156Z,66.00
2022-08-14T04:15:52.840Z,65.80
2022-08-14T04:18:21.294Z,65.70
2022-08-14T04:20:54.936Z,65.90
2022-08-14T04:23:29.086Z,66.10
2022-08-14T04:25:57.156Z,66.30
2022-08-14T04:29:08.343Z,66.30
2022-08-14T04:31:15.447Z,66.60
2022-08-14T04:33:42.865Z,66.70
2022-08-14T04:36:15.757Z,66.80
2022-08-14T04:39:03.661Z,66.80
2022-08-14T04:41:50.446Z,66.80
2022-08-14T04:44:35.794Z,66.90
2022-08-14T04:47:23.737Z,66.90
2022-08-14T04:49:57.247Z,67.00
2022-08-14T04:52:25.575Z,67.00
2022-08-14T04:54:54.733Z,67.00
2022-08-14T04:57:22.828Z,67.30
2022-08-14T04:59:50.876Z,67.30
2022-08-14T05:02:18.459Z,67.30
2022-08-14T05:04:57.072Z,67.40
2022-08-14T05:07:46.476Z,67.30
2022-08-14T05:10:16.403Z,67.50
2022-08-14T05:13:24.527Z,67.40
2022-08-14T05:15:40.655Z,68.10
2022-08-14T05:18:17.629Z,67.60
2022-08-14T05:21:57.725Z,67.80
2022-08-14T05:23:52.063Z,67.60
2022-08-14T05:26:21.771Z,67.70
2022-08-14T05:28:49.064Z,67.60
2022-08-14T05:31:20.537Z,67.70
2022-08-14T05:33:56.933Z,67.70
2022-08-14T05:36:25.431Z,67.90
2022-08-14T05:38:55.288Z,67.80
2022-08-14T05:41:22.610Z,67.80
2022-08-14T05:43:51.175Z,67.80
2022-08-14T05:46:23.049Z,67.80
2022-08-14T05:48:57.201Z,67.60
2022-08-14T05:51:26.724Z,67.80
2022-08-14T05:54:12.666Z,67.80
2022-08-14T05:56:41.105Z,67.80
2022-08-14T05:59:08.322Z,67.70
2022-08-14T06:01:35.508Z,67.80
2022-08-14T06:04:04.462Z,67.80
2022-08-14T06:06:36.626Z,67.60
2022-08-14T06:09:09.922Z,67.90
2022-08-14T06:11:37.504Z,67.90
2022-08-14T06:14:12.371Z,67.90
2022-08-14T06:16:47.806Z,67.70
2022-08-14T06:19:18.123Z,67.90
2022-08-14T06:21:45.620Z,68.10
2022-08-14T06:24:18.602Z,68.00
2022-08-14T06:26:54.372Z,68.10
2022-08-14T06:29:24.219Z,68.40
2022-08-14T06:31:54.811Z,68.20
2022-08-14T06:35:03.240Z,68.10
2022-08-14T06:37:17.165Z,68.20
2022-08-14T06:39:44.585Z,68.20
2022-08-14T06:42:31.322Z,68.20
2022-08-14T06:45:01.383Z,68.30
2022-08-14T06:47:30.077Z,68.10
2022-08-14T06:49:58.203Z,68.00
2022-08-14T06:52:25.756Z,68.10
2022-08-14T06:54:53.417Z,68.00
2022-08-14T06:57:21.542Z,68.30
2022-08-14T06:59:50.228Z,68.40
2022-08-14T07:02:43.440Z,69.00
2022-08-14T07:05:29.541Z,68.40
2022-08-14T07:07:58.254Z,68.30
2022-08-14T07:10:25.821Z,68.40
2022-08-14T07:13:03.902Z,68.20
2022-08-14T07:15:34.266Z,68.30
2022-08-14T07:18:09.026Z,68.30
2022-08-14T07:20:36.982Z,68.30
2022-08-14T07:23:08.868Z,68.40
2022-08-14T07:25:42.234Z,68.10
2022-08-14T07:28:20.465Z,68.00
2022-08-14T07:30:51.110Z,67.90
2022-08-14T07:33:28.950Z,67.80
2022-08-14T07:35:59.534Z,67.70
2022-08-14T07:38:33.934Z,67.70
2022-08-14T07:41:06.859Z,67.80
2022-08-14T07:43:40.993Z,67.80
2022-08-14T07:46:08.302Z,67.80
2022-08-14T07:48:43.966Z,67.80
2022-08-14T07:51:15.225Z,67.70
2022-08-14T07:53:42.512Z,67.80
2022-08-14T07:56:44.158Z,67.90
2022-08-14T07:59:00.678Z,67.90
2022-08-14T08:01:31.013Z,67.80
2022-08-14T08:04:01.458Z,67.80
2022-08-14T08:06:30.963Z,69.10
2022-08-14T08:09:02.826Z,69.90
2022-08-14T08:11:37.382Z,69.60
2022-08-14T08:14:10.871Z,68.60
2022-08-14T08:16:47.556Z,68.50
2022-08-14T08:19:19.525Z,68.20
2022-08-14T08:21:49.822Z,68.40
2022-08-14T08:24:20.752Z,68.00
2022-08-14T08:26:50.643Z,67.90
2022-08-14T08:29:29.013Z,67.90
2022-08-14T08:32:01.937Z,67.90
2022-08-14T08:34:45.181Z,67.90
2022-08-14T08:37:13.991Z,67.80
2022-08-14T08:40:01.811Z,67.80
2022-08-14T08:42:38.710Z,67.80
2022-08-14T08:45:15.479Z,67.90
2022-08-14T08:47:45.541Z,67.70
2022-08-14T08:50:31.414Z,67.50
2022-08-14T08:53:03.839Z,67.60
2022-08-14T08:55:35.279Z,67.60
2022-08-14T08:58:16.105Z,67.40
2022-08-14T09:00:48.844Z,67.40
2022-08-14T09:03:20.737Z,68.20
2022-08-14T09:06:04.169Z,67.90
2022-08-14T09:08:51.272Z,67.70
2022-08-14T09:11:19.656Z,67.60
2022-08-14T09:13:53.291Z,67.50
2022-08-14T09:16:23.735Z,67.60
2022-08-14T09:18:53.048Z,67.50
2022-08-14T09:21:20.924Z,67.50
2022-08-14T09:24:29.008Z,67.50
2022-08-14T09:26:48.932Z,67.50
2022-08-14T09:29:20.079Z,67.40
2022-08-14T09:31:57.078Z,67.50
2022-08-14T09:34:59.183Z,67.50
2022-08-14T09:37:48.409Z,67.40
2022-08-14T09:40:49.153Z,67.60
2022-08-14T09:43:33.388Z,67.60
2022-08-14T09:46:02.707Z,67.60
2022-08-14T09:48:31.213Z,68.60
2022-08-14T09:54:18.037Z,69.30
2022-08-14T09:56:51.652Z,69.30
2022-08-14T09:59:28.177Z,69.20
2022-08-14T10:01:59.746Z,68.80
2022-08-14T10:04:35.792Z,68.60
2022-08-14T10:07:08.493Z,68.50
2022-08-14T10:09:57.748Z,68.30
2022-08-14T10:13:02.385Z,68.30
2022-08-14T10:15:32.374Z,69.50
2022-08-14T10:18:21.474Z,69.00
2022-08-14T10:21:00.954Z,68.60
2022-08-14T10:23:39.306Z,69.20
2022-08-14T10:26:08.928Z,68.60
2022-08-14T10:29:17.658Z,68.60
2022-08-14T10:31:43.116Z,68.70
2022-08-14T10:34:19.042Z,69.30
2022-08-14T10:36:49.908Z,69.70
2022-08-14T10:39:22.594Z,69.90
2022-08-14T10:41:59.849Z,70.20
2022-08-14T10:44:38.459Z,71.30
2022-08-14T10:47:41.004Z,70.40
2022-08-14T10:50:01.158Z,69.80
2022-08-14T10:52:34.488Z,70.00
2022-08-14T10:55:09.588Z,70.10
2022-08-14T10:57:54.645Z,70.40
2022-08-14T11:00:29.860Z,70.40
2022-08-14T11:03:17.285Z,70.10
2022-08-14T11:05:55.697Z,70.00
2022-08-14T11:08:34.109Z,69.70
2022-08-14T11:11:05.558Z,69.30
2022-08-14T11:13:33.761Z,69.00
2022-08-14T11:16:02.529Z,68.80
2022-08-14T11:18:36.065Z,68.70
2022-08-14T11:21:08.213Z,68.60
2022-08-14T11:23:41.145Z,68.60
2022-08-14T11:26:12.189Z,68.60
2022-08-14T11:28:48.511Z,68.40
2022-08-14T11:31:26.360Z,68.30
2022-08-14T11:34:10.483Z,68.20
2022-08-14T11:37:09.769Z,68.00
2022-08-14T11:39:41.923Z,68.60
2022-08-14T11:42:58.039Z,67.70
2022-08-14T11:45:11.342Z,67.80
2022-08-14T11:48:13.789Z,67.70
2022-08-14T11:50:37.765Z,67.70
2022-08-14T11:53:07.773Z,67.60
2022-08-14T11:55:38.819Z,67.60
2022-08-14T11:58:10.614Z,67.70
2022-08-14T12:01:04.084Z,67.60
2022-08-14T12:03:46.514Z,67.50
2022-08-14T12:06:28.765Z,67.40
2022-08-14T12:09:03.471Z,67.30
2022-08-14T12:11:43.462Z,67.20
2022-08-14T12:14:29.906Z,67.20
2022-08-14T12:17:09.431Z,67.10
2022-08-14T12:19:58.896Z,67.10
2022-08-14T12:22:42.421Z,67.00
2022-08-14T12:25:14.312Z,66.90
2022-08-14T12:27:53.863Z,66.60
2022-08-14T12:30:43.104Z,66.60
2022-08-14T12:33:24.042Z,66.60
2022-08-14T12:35:56.467Z,66.60
2022-08-14T12:38:38.497Z,66.40
2022-08-14T12:41:16.423Z,66.50
2022-08-14T12:43:55.631Z,66.30
2022-08-14T12:46:43.446Z,66.40
2022-08-14T12:49:15.962Z,66.40
2022-08-14T12:51:44.909Z,66.30
2022-08-14T12:54:28.572Z,66.10
2022-08-14T12:57:19.481Z,65.80
2022-08-14T12:59:49.473Z,65.70
2022-08-14T13:02:26.167Z,65.60
2022-08-14T13:04:56.818Z,65.80
2022-08-14T13:07:32.676Z,65.80
2022-08-14T13:10:12.826Z,65.50
2022-08-14T13:15:45.598Z,65.40
2022-08-14T13:18:15.859Z,65.40
2022-08-14T13:20:48.151Z,64.70
2022-08-14T13:23:32.127Z,64.60
2022-08-14T13:26:00.956Z,64.80
2022-08-14T13:28:33.376Z,64.60
2022-08-14T13:31:10.987Z,64.50
2022-08-14T13:33:40.913Z,64.50
2022-08-14T13:36:09.832Z,64.50
2022-08-14T13:38:38.979Z,64.60
2022-08-14T13:41:07.114Z,64.60
2022-08-14T13:43:36.819Z,64.70
2022-08-14T13:46:19.891Z,64.60
2022-08-14T13:48:47.973Z,64.80
2022-08-14T13:51:17.551Z,64.80
2022-08-14T13:54:08.390Z,65.00
2022-08-14T13:56:40.488Z,65.10
2022-08-14T13:59:08.266Z,65.10
2022-08-14T14:01:43.755Z,65.10
2022-08-14T14:04:17.935Z,65.10
2022-08-14T14:06:52.380Z,65.30
2022-08-14T14:09:37.515Z,65.20
2022-08-14T14:12:36.481Z,65.60
2022-08-14T14:15:16.792Z,65.30
2022-08-14T14:17:44.959Z,65.10
2022-08-14T14:20:34.483Z,65.20
2022-08-14T14:23:10.512Z,65.30
2022-08-14T14:25:51.487Z,65.40
2022-08-14T14:28:31.554Z,65.30
2022-08-14T14:31:06.772Z,65.30
2022-08-14T14:33:51.352Z,64.60
2022-08-14T14:36:26.666Z,64.90
2022-08-14T14:39:01.238Z,65.00
